createdAt,value
2019-01-17T00:01:05.620Z,4.20
2019-01-17T00:04:11.934Z,4.87
2019-01-17T00:06:50.985Z,3.90
2019-01-17T00:09:29.893Z,3.43
2019-01-17T00:12:16.450Z,4.27
2019-01-17T00:15:07.665Z,4.97
2019-01-17T00:17:52.935Z,4.27
2019-01-17T00:20:39.456Z,5.20
2019-01-17T00:23:29.545Z,4.97
2019-01-17T00:26:11.691Z,4.40
2019-01-17T00:28:50.342Z,5.30
2019-01-17T00:31:27.078Z,4.67
2019-01-17T00:34:18.522Z,4.90
2019-01-17T00:37:06.607Z,5.10
2019-01-17T00:40:00.754Z,4.47
2019-01-17T00:45:56.397Z,5.43
2019-01-17T00:48:47.287Z,4.90
2019-01-17T00:51:47.150Z,5.20
2019-01-17T00:54:24.945Z,4.03
2019-01-17T00:57:15.774Z,4.50
2019-01-17T01:00:06.870Z,5.73
2019-01-17T01:02:44.446Z,5.43
2019-01-17T01:05:35.520Z,6.43
2019-01-17T01:08:29.462Z,6.07
2019-01-17T01:11:32.498Z,5.67
2019-01-17T01:14:26.313Z,4.60
2019-01-17T01:17:12.653Z,6.00
2019-01-17T01:19:59.386Z,5.40
2019-01-17T01:22:45.870Z,4.87
2019-01-17T01:25:46.145Z,5.40
2019-01-17T01:28:32.674Z,4.40
2019-01-17T01:31:20.742Z,5.90
2019-01-17T01:34:02.108Z,6.27
2019-01-17T01:36:50.577Z,5.00
2019-01-17T01:39:37.210Z,5.50
2019-01-17T01:42:14.546Z,6.03
2019-01-17T01:45:08.641Z,4.80
2019-01-17T01:47:56.711Z,5.53
2019-01-17T01:50:36.820Z,5.37
2019-01-17T01:53:09.011Z,4.90
2019-01-17T01:55:38.086Z,5.70
2019-01-17T01:58:07.185Z,5.53
2019-01-17T02:00:36.270Z,5.50
2019-01-17T02:03:05.369Z,4.83
2019-01-17T02:05:34.453Z,4.63
2019-01-17T02:08:03.848Z,4.60
2019-01-17T02:10:32.917Z,4.97
2019-01-17T02:13:02.031Z,4.03
2019-01-17T02:15:31.104Z,4.20
2019-01-17T02:18:00.204Z,4.10
2019-01-17T02:20:29.270Z,3.83
2019-01-17T02:22:58.386Z,3.63
2019-01-17T02:25:27.453Z,3.87
2019-01-17T02:27:56.556Z,3.67
2019-01-17T02:30:25.643Z,3.23
2019-01-17T02:32:54.715Z,2.80
2019-01-17T02:35:23.817Z,3.47
2019-01-17T02:37:52.914Z,2.97
2019-01-17T02:40:22.032Z,2.93
2019-01-17T02:42:51.113Z,2.30
2019-01-17T02:45:20.222Z,2.63
2019-01-17T02:47:49.306Z,2.67
2019-01-17T02:50:18.410Z,2.40
2019-01-17T02:52:47.490Z,2.60
2019-01-17T02:55:16.582Z,2.87
2019-01-17T02:57:45.660Z,2.40
2019-01-17T03:00:16.653Z,2.67
2019-01-17T03:02:45.731Z,2.50
2019-01-17T03:05:14.939Z,2.27
2019-01-17T03:07:44.119Z,2.20
2019-01-17T03:10:17.797Z,2.30
2019-01-17T03:12:46.881Z,1.87
2019-01-17T03:15:15.984Z,1.70
2019-01-17T03:17:45.067Z,2.20
2019-01-17T03:20:14.655Z,1.70
2019-01-17T03:22:43.734Z,2.03
2019-01-17T03:25:12.861Z,1.73
2019-01-17T03:27:41.952Z,1.60
2019-01-17T03:30:16.650Z,1.67
2019-01-17T03:32:45.929Z,1.73
2019-01-17T03:35:15.027Z,1.43
2019-01-17T03:37:44.110Z,1.70
2019-01-17T03:40:15.497Z,2.10
2019-01-17T03:42:44.570Z,1.73
2019-01-17T03:45:14.017Z,2.07
2019-01-17T03:47:43.106Z,1.70
2019-01-17T03:50:13.638Z,1.80
2019-01-17T03:52:42.747Z,1.60
2019-01-17T03:55:13.807Z,1.73
2019-01-17T03:57:42.902Z,1.60
2019-01-17T04:00:15.211Z,1.70
2019-01-17T04:02:44.318Z,1.10
2019-01-17T04:05:13.491Z,1.50
2019-01-17T04:07:42.582Z,1.43
2019-01-17T04:10:12.805Z,1.50
2019-01-17T04:12:41.907Z,1.70
2019-01-17T04:15:11.256Z,1.47
2019-01-17T04:17:40.357Z,1.40
2019-01-17T04:20:12.412Z,1.40
2019-01-17T04:22:41.520Z,1.30
2019-01-17T04:25:10.647Z,1.50
2019-01-17T04:27:39.745Z,1.53
2019-01-17T04:30:12.250Z,1.20
2019-01-17T04:32:41.347Z,1.40
2019-01-17T04:35:10.524Z,1.20
2019-01-17T04:37:39.624Z,1.50
2019-01-17T04:40:09.303Z,1.37
2019-01-17T04:42:38.397Z,1.57
2019-01-17T04:45:08.406Z,1.50
2019-01-17T04:47:37.506Z,1.37
2019-01-17T04:50:08.100Z,1.27
2019-01-17T04:52:37.208Z,0.90
2019-01-17T04:55:07.490Z,1.00
2019-01-17T04:57:36.580Z,1.00
2019-01-17T05:00:08.371Z,0.90
2019-01-17T05:02:38.552Z,0.97
2019-01-17T05:05:07.943Z,0.90
2019-01-17T05:07:37.043Z,1.00
2019-01-17T05:10:06.603Z,0.90
2019-01-17T05:12:35.705Z,1.00
2019-01-17T05:15:05.319Z,0.90
2019-01-17T05:17:34.420Z,1.00
2019-01-17T05:20:03.561Z,0.70
2019-01-17T05:22:32.672Z,0.87
2019-01-17T05:25:01.735Z,1.80
2019-01-17T05:27:30.814Z,1.47
2019-01-17T05:30:01.647Z,0.90
2019-01-17T05:32:36.596Z,0.80
2019-01-17T05:35:01.615Z,0.90
2019-01-17T05:37:30.696Z,0.80
2019-01-17T05:39:59.820Z,0.90
2019-01-17T05:42:28.904Z,1.00
2019-01-17T05:44:58.004Z,0.90
2019-01-17T05:47:27.098Z,0.70
2019-01-17T05:49:56.194Z,0.70
2019-01-17T05:52:25.269Z,0.90
2019-01-17T05:54:54.367Z,0.80
2019-01-17T05:57:23.437Z,0.70
2019-01-17T05:59:52.543Z,1.07
2019-01-17T06:02:21.629Z,0.73
2019-01-17T06:04:50.723Z,0.60
2019-01-17T06:07:19.807Z,0.80
2019-01-17T06:09:48.918Z,0.60
2019-01-17T06:12:17.995Z,0.67
2019-01-17T06:14:47.102Z,0.67
2019-01-17T06:17:16.179Z,0.77
2019-01-17T06:19:45.278Z,0.73
2019-01-17T06:22:14.351Z,0.63
2019-01-17T06:24:43.475Z,0.60
2019-01-17T06:27:12.563Z,0.60
2019-01-17T06:29:41.661Z,0.70
2019-01-17T06:32:10.743Z,2.73
2019-01-17T06:34:39.848Z,3.63
2019-01-17T06:37:08.922Z,4.50
2019-01-17T06:39:38.046Z,1.33
2019-01-17T06:42:07.123Z,1.17
2019-01-17T06:44:36.219Z,1.43
2019-01-17T06:47:05.295Z,0.80
2019-01-17T06:49:34.371Z,0.93
2019-01-17T06:52:03.478Z,1.10
2019-01-17T06:54:32.550Z,1.20
2019-01-17T06:57:01.659Z,0.93
2019-01-17T06:59:30.730Z,0.80
2019-01-17T07:01:59.827Z,0.90
2019-01-17T07:04:28.900Z,0.63
2019-01-17T07:06:57.998Z,0.70
2019-01-17T07:09:27.076Z,0.93
2019-01-17T07:11:56.167Z,1.50
2019-01-17T07:14:25.238Z,2.00
2019-01-17T07:16:54.349Z,1.00
2019-01-17T07:19:23.455Z,0.90
2019-01-17T07:21:52.555Z,0.97
2019-01-17T07:24:21.626Z,1.00
2019-01-17T07:26:50.712Z,1.20
2019-01-17T07:29:19.789Z,1.00
2019-01-17T07:31:48.904Z,1.00
2019-01-17T07:34:17.976Z,1.33
2019-01-17T07:36:47.075Z,0.90
2019-01-17T07:39:16.154Z,1.07
2019-01-17T07:41:45.278Z,1.10
2019-01-17T07:44:14.370Z,1.10
2019-01-17T07:46:43.471Z,1.30
2019-01-17T07:49:12.546Z,1.30
2019-01-17T07:51:41.647Z,1.57
2019-01-17T07:54:10.730Z,1.20
2019-01-17T07:56:39.826Z,1.30
2019-01-17T07:59:08.914Z,1.30
2019-01-17T08:01:38.019Z,1.20
2019-01-17T08:04:07.109Z,1.80
2019-01-17T08:06:36.213Z,1.50
2019-01-17T08:09:09.384Z,1.50
2019-01-17T08:11:38.487Z,1.50
2019-01-17T08:14:07.572Z,2.00
2019-01-17T08:16:36.670Z,1.90
2019-01-17T08:19:05.763Z,1.50
2019-01-17T08:21:34.836Z,1.30
2019-01-17T08:24:03.931Z,1.50
2019-01-17T08:26:33.014Z,1.60
2019-01-17T08:29:02.118Z,1.67
2019-01-17T08:31:31.193Z,1.60
2019-01-17T08:34:00.289Z,1.43
2019-01-17T08:36:29.353Z,1.60
2019-01-17T08:38:58.457Z,1.40
2019-01-17T08:41:27.552Z,1.40
2019-01-17T08:43:56.748Z,1.30
2019-01-17T08:46:25.834Z,1.10
2019-01-17T08:48:54.927Z,1.40
2019-01-17T08:51:24.004Z,0.97
2019-01-17T08:53:53.103Z,1.20
2019-01-17T08:56:22.193Z,0.87
2019-01-17T08:58:51.292Z,0.83
2019-01-17T09:01:20.375Z,1.10
2019-01-17T09:03:49.466Z,0.97
2019-01-17T09:06:18.545Z,0.77
2019-01-17T09:08:47.645Z,1.20
2019-01-17T09:11:16.720Z,1.20
2019-01-17T09:13:45.825Z,1.10
2019-01-17T09:16:14.898Z,1.30
2019-01-17T09:18:43.998Z,1.20
2019-01-17T09:21:13.077Z,1.40
2019-01-17T09:23:42.170Z,1.03
2019-01-17T09:26:11.253Z,0.80
2019-01-17T09:28:40.347Z,1.00
2019-01-17T09:31:09.417Z,1.20
2019-01-17T09:33:38.518Z,0.83
2019-01-17T09:36:07.591Z,0.77
2019-01-17T09:38:36.688Z,1.23
2019-01-17T09:41:05.789Z,0.80
2019-01-17T09:43:34.877Z,1.00
2019-01-17T09:46:03.970Z,0.70
2019-01-17T09:48:33.049Z,1.00
2019-01-17T09:51:02.141Z,0.77
2019-01-17T09:53:31.210Z,0.80
2019-01-17T09:56:00.303Z,0.57
2019-01-17T09:58:29.370Z,0.70
2019-01-17T10:00:58.466Z,1.80
2019-01-17T10:03:27.533Z,1.57
2019-01-17T10:05:56.637Z,0.97
2019-01-17T10:08:25.721Z,0.70
2019-01-17T10:10:54.813Z,1.80
2019-01-17T10:13:23.881Z,3.70
2019-01-17T10:16:31.151Z,4.50
2019-01-17T10:19:38.423Z,1.07
2019-01-17T10:22:44.461Z,0.80
2019-01-17T10:25:45.470Z,0.90
2019-01-17T10:28:30.230Z,1.40
2019-01-17T10:31:29.948Z,1.50
2019-01-17T10:34:55.028Z,0.93
2019-01-17T10:38:28.906Z,1.10
2019-01-17T10:41:32.253Z,0.90
2019-01-17T10:44:57.279Z,2.23
2019-01-17T10:48:09.383Z,1.17
2019-01-17T10:51:14.114Z,1.17
2019-01-17T10:54:15.300Z,2.00
2019-01-17T10:57:02.009Z,1.17
2019-01-17T10:59:53.493Z,0.70
2019-01-17T11:03:09.330Z,1.50
2019-01-17T11:06:11.440Z,0.90
2019-01-17T11:09:24.554Z,1.07
2019-01-17T11:12:20.404Z,0.93
2019-01-17T11:15:18.021Z,1.00
2019-01-17T11:18:37.511Z,1.03
2019-01-17T11:21:37.424Z,1.20
2019-01-17T11:24:20.290Z,0.93
2019-01-17T11:27:26.268Z,1.10
2019-01-17T11:30:12.546Z,1.20
2019-01-17T11:33:09.105Z,1.60
2019-01-17T11:36:28.356Z,1.30
2019-01-17T11:39:11.030Z,1.07
2019-01-17T11:42:09.463Z,1.00
2019-01-17T11:45:02.645Z,1.10
2019-01-17T11:47:56.639Z,0.77
2019-01-17T11:50:40.829Z,2.00
2019-01-17T11:53:37.593Z,0.83
2019-01-17T11:56:30.211Z,0.70
2019-01-17T11:59:19.618Z,0.70
2019-01-17T12:02:39.120Z,0.77
2019-01-17T12:05:06.759Z,0.90
2019-01-17T12:07:35.857Z,0.80
2019-01-17T12:10:05.690Z,0.87
2019-01-17T12:12:34.958Z,1.00
2019-01-17T12:15:04.637Z,1.10
2019-01-17T12:17:33.730Z,0.83
2019-01-17T12:20:02.798Z,0.90
2019-01-17T12:22:31.890Z,0.60
2019-01-17T12:25:00.957Z,0.90
2019-01-17T12:27:30.057Z,0.83
2019-01-17T12:29:59.126Z,0.83
2019-01-17T12:32:28.200Z,0.87
2019-01-17T12:34:57.289Z,0.90
2019-01-17T12:37:26.366Z,1.20
2019-01-17T12:39:55.460Z,1.20
2019-01-17T12:42:24.572Z,1.00
2019-01-17T12:44:53.661Z,1.23
2019-01-17T12:47:22.733Z,1.10
2019-01-17T12:49:51.826Z,1.00
2019-01-17T12:52:20.901Z,1.30
2019-01-17T12:54:49.999Z,1.30
2019-01-17T12:57:19.073Z,1.00
2019-01-17T12:59:48.166Z,1.57
2019-01-17T13:02:17.237Z,1.07
2019-01-17T13:04:46.341Z,1.10
2019-01-17T13:07:15.413Z,0.80
2019-01-17T13:09:44.502Z,1.27
2019-01-17T13:12:13.587Z,1.20
2019-01-17T13:14:42.690Z,1.13
2019-01-17T13:17:11.764Z,1.00
2019-01-17T13:19:41.037Z,1.27
2019-01-17T13:22:10.125Z,1.20
2019-01-17T13:24:39.213Z,0.77
2019-01-17T13:27:08.293Z,1.10
2019-01-17T13:29:37.389Z,1.00
2019-01-17T13:32:06.477Z,1.40
2019-01-17T13:34:35.585Z,1.83
2019-01-17T13:37:04.676Z,1.20
2019-01-17T13:39:33.769Z,1.00
2019-01-17T13:42:02.862Z,1.20
2019-01-17T13:44:31.949Z,1.20
2019-01-17T13:47:01.026Z,1.00
2019-01-17T13:49:30.115Z,0.90
2019-01-17T13:51:59.187Z,0.80
2019-01-17T13:54:28.278Z,1.00
2019-01-17T13:56:57.356Z,1.63
2019-01-17T13:59:26.454Z,1.50
2019-01-17T14:01:55.541Z,0.77
2019-01-17T14:04:24.732Z,0.73
2019-01-17T14:06:53.815Z,0.50
2019-01-17T14:09:22.914Z,0.80
2019-01-17T14:11:51.994Z,0.60
2019-01-17T14:14:21.098Z,0.20
2019-01-17T14:16:50.180Z,0.50
2019-01-17T14:19:19.271Z,0.50
2019-01-17T14:21:48.382Z,0.43
2019-01-17T14:24:17.459Z,0.60
2019-01-17T14:26:46.578Z,0.60
2019-01-17T14:29:15.657Z,0.70
2019-01-17T14:31:44.754Z,0.90
2019-01-17T14:34:13.850Z,0.70
2019-01-17T14:36:42.950Z,0.70
2019-01-17T14:39:12.032Z,0.93
2019-01-17T14:41:41.145Z,0.80
2019-01-17T14:44:10.231Z,0.57
2019-01-17T14:46:39.338Z,0.60
2019-01-17T14:49:08.423Z,0.80
2019-01-17T14:51:37.512Z,0.80
2019-01-17T14:54:06.581Z,0.70
2019-01-17T14:56:35.673Z,0.60
2019-01-17T14:59:04.747Z,0.93
2019-01-17T15:01:33.838Z,0.80
2019-01-17T15:04:02.930Z,0.67
2019-01-17T15:06:32.020Z,1.07
2019-01-17T15:09:01.093Z,1.00
2019-01-17T15:11:30.177Z,0.80
2019-01-17T15:13:59.249Z,1.03
2019-01-17T15:16:28.359Z,1.10
2019-01-17T15:18:57.429Z,1.00
2019-01-17T15:21:26.521Z,1.03
2019-01-17T15:23:55.592Z,1.10
2019-01-17T15:26:24.684Z,1.20
2019-01-17T15:28:53.758Z,1.20
2019-01-17T15:31:22.850Z,1.50
2019-01-17T15:33:51.921Z,1.53
2019-01-17T15:36:21.014Z,1.80
2019-01-17T15:38:50.096Z,2.40
2019-01-17T15:41:19.204Z,1.57
2019-01-17T15:43:48.280Z,1.60
2019-01-17T15:46:17.380Z,1.97
2019-01-17T15:48:46.455Z,1.80
2019-01-17T15:51:15.526Z,1.67
2019-01-17T15:53:45.130Z,1.57
2019-01-17T15:56:14.199Z,1.80
2019-01-17T15:58:43.377Z,1.90
2019-01-17T16:01:12.468Z,1.70
2019-01-17T16:03:41.585Z,2.93
2019-01-17T16:06:10.671Z,2.10
2019-01-17T16:08:39.788Z,1.90
2019-01-17T16:11:08.870Z,1.90
2019-01-17T16:13:37.984Z,1.77
2019-01-17T16:16:07.060Z,1.43
2019-01-17T16:18:36.159Z,1.30
2019-01-17T16:21:05.262Z,1.80
2019-01-17T16:23:34.356Z,1.70
2019-01-17T16:26:03.442Z,2.53
2019-01-17T16:28:32.555Z,1.77
2019-01-17T16:31:01.640Z,1.93
2019-01-17T16:33:30.751Z,1.90
2019-01-17T16:35:59.841Z,1.60
2019-01-17T16:38:28.943Z,1.83
2019-01-17T16:40:58.058Z,1.93
2019-01-17T16:43:27.162Z,1.53
2019-01-17T16:45:56.258Z,1.00
2019-01-17T16:48:25.346Z,1.13
2019-01-17T16:50:54.429Z,0.90
2019-01-17T16:53:23.529Z,0.90
2019-01-17T16:55:52.602Z,0.70
2019-01-17T16:58:21.708Z,1.10
2019-01-17T17:00:50.886Z,1.23
2019-01-17T17:03:20.025Z,1.40
2019-01-17T17:05:49.128Z,1.10
2019-01-17T17:08:18.314Z,1.00
2019-01-17T17:10:47.397Z,1.30
2019-01-17T17:13:16.488Z,1.00
2019-01-17T17:15:45.556Z,1.13
2019-01-17T17:18:14.652Z,0.83
2019-01-17T17:20:43.726Z,1.07
2019-01-17T17:23:12.827Z,1.00
2019-01-17T17:25:41.909Z,0.80
2019-01-17T17:28:10.995Z,0.87
2019-01-17T17:30:41.302Z,1.00
2019-01-17T17:33:10.369Z,1.10
2019-01-17T17:35:39.474Z,0.80
2019-01-17T17:38:08.552Z,1.10
2019-01-17T17:40:37.657Z,0.93
2019-01-17T17:43:06.763Z,1.07
2019-01-17T17:45:35.858Z,1.00
2019-01-17T17:48:05.456Z,1.10
2019-01-17T17:50:34.673Z,1.07
2019-01-17T17:53:03.786Z,1.10
2019-01-17T17:55:32.882Z,1.17
2019-01-17T17:58:02.482Z,1.20
2019-01-17T18:00:41.102Z,1.07
2019-01-17T18:03:10.188Z,1.50
2019-01-17T18:05:39.278Z,1.37
2019-01-17T18:08:08.362Z,1.23
2019-01-17T18:10:37.557Z,1.30
2019-01-17T18:13:06.701Z,1.50
2019-01-17T18:15:35.837Z,1.57
2019-01-17T18:18:05.018Z,1.20
2019-01-17T18:20:34.565Z,1.60
2019-01-17T18:23:03.675Z,1.43
2019-01-17T18:25:32.769Z,1.27
2019-01-17T18:28:01.857Z,1.40
2019-01-17T18:30:30.958Z,1.70
2019-01-17T18:33:00.046Z,1.83
2019-01-17T18:35:29.164Z,1.70
2019-01-17T18:37:58.237Z,1.80
2019-01-17T18:40:27.339Z,2.20
2019-01-17T18:42:56.458Z,2.00
2019-01-17T18:45:26.604Z,1.77
2019-01-17T18:47:58.249Z,1.77
2019-01-17T18:50:29.352Z,1.63
2019-01-17T18:52:58.709Z,1.50
2019-01-17T18:55:28.166Z,1.50
2019-01-17T18:57:57.477Z,2.03
2019-01-17T19:00:28.916Z,1.93
2019-01-17T19:02:58.368Z,1.80
2019-01-17T19:05:28.321Z,2.30
2019-01-17T19:07:57.836Z,2.40
2019-01-17T19:10:27.318Z,2.57
2019-01-17T19:12:56.557Z,2.63
2019-01-17T19:15:30.799Z,2.23
2019-01-17T19:18:00.108Z,2.60
2019-01-17T19:20:29.649Z,2.27
2019-01-17T19:22:59.133Z,3.70
2019-01-17T19:25:29.247Z,2.63
2019-01-17T19:27:58.355Z,2.50
2019-01-17T19:30:29.053Z,2.30
2019-01-17T19:32:58.152Z,2.37
2019-01-17T19:35:27.608Z,2.47
2019-01-17T19:37:57.080Z,3.77
2019-01-17T19:40:27.959Z,3.53
2019-01-17T19:42:58.212Z,2.50
2019-01-17T19:45:27.310Z,2.80
2019-01-17T19:47:56.412Z,3.10
2019-01-17T19:50:28.510Z,3.03
2019-01-17T19:52:58.253Z,1.83
2019-01-17T19:55:28.605Z,2.90
2019-01-17T19:58:00.945Z,2.93
2019-01-17T20:00:30.708Z,2.57
2019-01-17T20:03:00.230Z,3.00
2019-01-17T20:05:31.327Z,2.93
2019-01-17T20:08:01.320Z,2.23
2019-01-17T20:10:32.993Z,2.10
2019-01-17T20:13:02.663Z,2.43
2019-01-17T20:15:32.398Z,2.80
2019-01-17T20:18:02.865Z,2.90
2019-01-17T20:20:33.851Z,2.03
2019-01-17T20:23:03.944Z,2.10
2019-01-17T20:25:33.464Z,3.17
2019-01-17T20:28:05.105Z,2.90
2019-01-17T20:30:36.638Z,1.90
2019-01-17T20:33:08.500Z,2.43
2019-01-17T20:35:39.911Z,2.77
2019-01-17T20:38:10.409Z,2.23
2019-01-17T20:40:39.631Z,1.70
2019-01-17T20:43:09.275Z,2.60
2019-01-17T20:45:39.375Z,2.20
2019-01-17T20:48:08.872Z,2.90
2019-01-17T20:50:37.941Z,3.00
2019-01-17T20:53:07.037Z,3.10
2019-01-17T20:55:36.112Z,2.57
2019-01-17T20:58:05.214Z,3.27
2019-01-17T21:00:41.798Z,3.47
2019-01-17T21:03:12.550Z,4.13
2019-01-17T21:05:41.630Z,3.00
2019-01-17T21:08:10.730Z,3.60
2019-01-17T21:10:39.813Z,4.10
2019-01-17T21:13:08.915Z,3.73
2019-01-17T21:15:37.986Z,3.33
2019-01-17T21:18:07.113Z,3.50
2019-01-17T21:20:36.207Z,3.10
2019-01-17T21:23:05.584Z,3.17
2019-01-17T21:25:34.718Z,2.93
2019-01-17T21:28:03.800Z,3.00
2019-01-17T21:30:32.896Z,3.20
2019-01-17T21:33:06.791Z,2.83
2019-01-17T21:35:32.803Z,2.57
2019-01-17T21:38:01.890Z,3.20
2019-01-17T21:40:30.990Z,2.90
2019-01-17T21:43:00.081Z,3.53
2019-01-17T21:45:29.229Z,3.30
2019-01-17T21:47:58.266Z,3.50
2019-01-17T21:50:28.144Z,3.00
2019-01-17T21:52:57.211Z,3.10
2019-01-17T21:55:26.306Z,2.87
2019-01-17T21:57:55.378Z,2.83
2019-01-17T22:00:25.483Z,3.00
2019-01-17T22:02:54.573Z,2.83
2019-01-17T22:05:23.670Z,2.80
2019-01-17T22:07:52.767Z,2.27
2019-01-17T22:10:22.664Z,2.40
2019-01-17T22:12:51.762Z,2.50
2019-01-17T22:15:22.597Z,2.00
2019-01-17T22:17:51.691Z,2.20
2019-01-17T22:20:20.787Z,1.93
2019-01-17T22:22:49.874Z,1.60
2019-01-17T22:25:19.300Z,1.70
2019-01-17T22:27:49.481Z,1.90
2019-01-17T22:30:20.681Z,1.73
2019-01-17T22:32:49.765Z,1.60
2019-01-17T22:35:18.870Z,1.83
2019-01-17T22:37:47.951Z,1.70
2019-01-17T22:40:17.091Z,1.90
2019-01-17T22:42:46.201Z,1.40
2019-01-17T22:45:20.664Z,1.47
2019-01-17T22:47:49.743Z,1.30
2019-01-17T22:50:19.084Z,1.53
2019-01-17T22:52:48.631Z,1.37
2019-01-17T22:55:17.708Z,1.40
2019-01-17T22:57:46.801Z,1.27
2019-01-17T23:00:51.810Z,1.77
2019-01-17T23:03:23.377Z,1.30
2019-01-17T23:05:52.457Z,1.20
2019-01-17T23:08:21.548Z,1.03
2019-01-17T23:10:50.621Z,1.40
2019-01-17T23:13:19.744Z,1.30
2019-01-17T23:15:48.809Z,1.50
2019-01-17T23:18:17.897Z,1.30
2019-01-17T23:20:46.968Z,1.60
2019-01-17T23:23:16.091Z,1.47
2019-01-17T23:25:45.159Z,1.60
2019-01-17T23:28:14.261Z,1.83
2019-01-17T23:30:43.334Z,1.20
2019-01-17T23:33:12.505Z,1.33
2019-01-17T23:35:41.573Z,1.57
2019-01-17T23:38:10.675Z,1.50
2019-01-17T23:40:39.761Z,1.50
2019-01-17T23:43:08.898Z,1.20
2019-01-17T23:45:37.964Z,1.33
2019-01-17T23:48:07.060Z,1.17
2019-01-17T23:50:36.137Z,1.10
2019-01-17T23:53:05.554Z,1.67
2019-01-17T23:55:34.634Z,1.20
2019-01-17T23:58:03.736Z,1.37
